sensor_id;sensor_type;location;lat;lon;timestamp;pressure;altitude;pressure_sealevel;temperature;humidity
7940;BME280;4015;48.888;9.226;2024-03-23T00:51:21;157724.84;;;9.87;79.84
7940;BME280;4015;48.888;9.226;2024-03-23T00:56:12;157691.59;;;9.74;80.39
7940;BME280;4015;48.888;9.226;2024-03-23T00:58:37;157690.31;;;9.73;80.85
7940;BME280;4015;48.888;9.226;2024-03-23T01:01:03;157687.78;;;9.72;80.59
7940;BME280;4015;48.888;9.226;2024-03-23T01:03:31;157677.59;;;9.68;81.03
7940;BME280;4015;48.888;9.226;2024-03-23T01:06:00;157671.19;;;9.66;80.99
7940;BME280;4015;48.888;9.226;2024-03-23T01:08:25;157675.00;;;9.67;81.01
7940;BME280;4015;48.888;9.226;2024-03-23T01:10:58;157695.47;;;9.76;80.81
7940;BME280;4015;48.888;9.226;2024-03-23T01:13:24;157727.38;;;9.88;80.22
7940;BME280;4015;48.888;9.226;2024-03-23T01:15:50;157749.06;;;9.97;79.88
7940;BME280;4015;48.888;9.226;2024-03-23T01:18:16;157764.38;;;10.03;79.91
7940;BME280;4015;48.888;9.226;2024-03-23T01:20:43;157768.22;;;10.05;80.50
7940;BME280;4015;48.888;9.226;2024-03-23T01:23:08;157766.94;;;10.04;80.35
7940;BME280;4015;48.888;9.226;2024-03-23T01:25:33;157765.66;;;10.04;79.96
7940;BME280;4015;48.888;9.226;2024-03-23T01:27:58;157778.44;;;10.09;79.58
7940;BME280;4015;48.888;9.226;2024-03-23T01:30:24;157783.53;;;10.11;79.97
7940;BME280;4015;48.888;9.226;2024-03-23T01:32:49;157758.03;;;10.00;79.95
7940;BME280;4015;48.888;9.226;2024-03-23T01:35:14;157737.56;;;9.92;80.68
7940;BME280;4015;48.888;9.226;2024-03-23T01:37:40;157703.09;;;9.79;81.21
7940;BME280;4015;48.888;9.226;2024-03-23T01:40:05;157700.56;;;9.78;80.76
7940;BME280;4015;48.888;9.226;2024-03-23T01:42:31;157689.06;;;9.73;81.93
7940;BME280;4015;48.888;9.226;2024-03-23T01:44:56;157685.22;;;9.71;81.69
7940;BME280;4015;48.888;9.226;2024-03-23T01:47:21;157695.47;;;9.76;80.98
7940;BME280;4015;48.888;9.226;2024-03-23T01:49:47;157703.09;;;9.79;80.35
7940;BME280;4015;48.888;9.226;2024-03-23T01:52:12;157719.69;;;9.85;79.64
7940;BME280;4015;48.888;9.226;2024-03-23T01:54:38;157743.97;;;9.95;79.64
7940;BME280;4015;48.888;9.226;2024-03-23T01:57:04;157763.13;;;10.03;79.45
7940;BME280;4015;48.888;9.226;2024-03-23T01:59:29;157764.38;;;10.03;79.26
7940;BME280;4015;48.888;9.226;2024-03-23T02:01:55;157758.03;;;10.00;79.29
7940;BME280;4015;48.888;9.226;2024-03-23T02:04:20;157751.63;;;9.98;79.33
7940;BME280;4015;48.888;9.226;2024-03-23T02:06:45;157742.69;;;9.94;79.44
7940;BME280;4015;48.888;9.226;2024-03-23T02:09:11;157724.84;;;9.87;79.46
7940;BME280;4015;48.888;9.226;2024-03-23T02:11:36;157703.09;;;9.79;79.79
7940;BME280;4015;48.888;9.226;2024-03-23T02:14:02;157695.47;;;9.76;79.93
7940;BME280;4015;48.888;9.226;2024-03-23T02:16:27;157698.00;;;9.77;79.83
7940;BME280;4015;48.888;9.226;2024-03-23T02:18:52;157717.16;;;9.84;79.63
7940;BME280;4015;48.888;9.226;2024-03-23T02:21:17;157731.19;;;9.90;79.51
7940;BME280;4015;48.888;9.226;2024-03-23T02:23:43;157747.78;;;9.96;79.24
7940;BME280;4015;48.888;9.226;2024-03-23T02:26:08;157775.91;;;10.08;78.97
7940;BME280;4015;48.888;9.226;2024-03-23T02:28:33;157809.09;;;10.21;78.78
7940;BME280;4015;48.888;9.226;2024-03-23T02:30:59;157835.97;;;10.32;78.28
7940;BME280;4015;48.888;9.226;2024-03-23T02:33:26;157864.03;;;10.43;78.18
7940;BME280;4015;48.888;9.226;2024-03-23T02:35:55;157913.91;;;10.63;77.55
7940;BME280;4015;48.888;9.226;2024-03-23T02:38:21;157949.66;;;10.77;77.51
7940;BME280;4015;48.888;9.226;2024-03-23T02:40:46;157950.94;;;10.77;77.82
7940;BME280;4015;48.888;9.226;2024-03-23T02:43:12;157970.06;;;10.85;77.17
7940;BME280;4015;48.888;9.226;2024-03-23T02:45:37;157993.09;;;10.94;76.72
7940;BME280;4015;48.888;9.226;2024-03-23T02:48:02;157996.94;;;10.96;76.84
7940;BME280;4015;48.888;9.226;2024-03-23T02:50:29;158012.25;;;11.02;76.64
7940;BME280;4015;48.888;9.226;2024-03-23T02:52:54;157991.81;;;10.94;77.04
7940;BME280;4015;48.888;9.226;2024-03-23T02:55:19;158018.63;;;11.04;76.53
7940;BME280;4015;48.888;9.226;2024-03-23T02:57:45;158030.13;;;11.09;76.86
7940;BME280;4015;48.888;9.226;2024-03-23T03:00:10;158031.41;;;11.10;76.67
7940;BME280;4015;48.888;9.226;2024-03-23T03:02:36;158062.09;;;11.22;76.33
7940;BME280;4015;48.888;9.226;2024-03-23T03:05:03;158076.16;;;11.27;76.34
7940;BME280;4015;48.888;9.226;2024-03-23T03:07:30;158064.63;;;11.23;76.37
7940;BME280;4015;48.888;9.226;2024-03-23T03:09:55;158074.88;;;11.27;76.42
7940;BME280;4015;48.888;9.226;2024-03-23T03:12:20;158071.03;;;11.25;76.79
7940;BME280;4015;48.888;9.226;2024-03-23T03:14:46;158092.75;;;11.34;76.16
7940;BME280;4015;48.888;9.226;2024-03-23T03:17:11;158059.53;;;11.21;76.60
7940;BME280;4015;48.888;9.226;2024-03-23T03:19:36;158030.13;;;11.09;77.05
7940;BME280;4015;48.888;9.226;2024-03-23T03:22:02;158023.78;;;11.06;76.96
7940;BME280;4015;48.888;9.226;2024-03-23T03:24:29;157993.09;;;10.94;77.34
7940;BME280;4015;48.888;9.226;2024-03-23T03:26:54;157936.88;;;10.72;78.13
7940;BME280;4015;48.888;9.226;2024-03-23T03:29:20;157911.31;;;10.62;78.46
7940;BME280;4015;48.888;9.226;2024-03-23T03:31:45;157916.44;;;10.64;78.38
7940;BME280;4015;48.888;9.226;2024-03-23T03:34:11;157925.34;;;10.67;78.25
7940;BME280;4015;48.888;9.226;2024-03-23T03:36:36;157979.03;;;10.89;77.43
7940;BME280;4015;48.888;9.226;2024-03-23T03:39:02;157956.03;;;10.79;77.75
7940;BME280;4015;48.888;9.226;2024-03-23T03:41:28;157941.97;;;10.74;78.02
7940;BME280;4015;48.888;9.226;2024-03-23T03:43:54;157934.31;;;10.71;78.11
7940;BME280;4015;48.888;9.226;2024-03-23T03:46:20;157927.91;;;10.68;78.49
7940;BME280;4015;48.888;9.226;2024-03-23T03:48:45;157930.50;;;10.69;78.50
7940;BME280;4015;48.888;9.226;2024-03-23T03:51:12;157878.09;;;10.48;79.62
7940;BME280;4015;48.888;9.226;2024-03-23T03:53:38;157867.91;;;10.44;79.64
7940;BME280;4015;48.888;9.226;2024-03-23T03:56:03;157853.84;;;10.39;79.79
7940;BME280;4015;48.888;9.226;2024-03-23T03:58:29;157857.66;;;10.40;79.43
7940;BME280;4015;48.888;9.226;2024-03-23T04:00:54;157853.84;;;10.39;79.58
7940;BME280;4015;48.888;9.226;2024-03-23T04:03:21;157846.16;;;10.36;80.08
7940;BME280;4015;48.888;9.226;2024-03-23T04:05:53;157838.53;;;10.33;80.38
7940;BME280;4015;48.888;9.226;2024-03-23T04:08:19;157805.28;;;10.19;80.40
7940;BME280;4015;48.888;9.226;2024-03-23T04:10:44;157802.72;;;10.18;80.71
7940;BME280;4015;48.888;9.226;2024-03-23T04:13:11;157816.78;;;10.24;80.41
7940;BME280;4015;48.888;9.226;2024-03-23T04:15:36;157841.06;;;10.34;80.40
7940;BME280;4015;48.888;9.226;2024-03-23T04:18:02;157889.59;;;10.53;80.00
7940;BME280;4015;48.888;9.226;2024-03-23T04:20:27;157931.78;;;10.70;79.61
7940;BME280;4015;48.888;9.226;2024-03-23T04:22:52;157945.84;;;10.75;79.99
7940;BME280;4015;48.888;9.226;2024-03-23T04:25:19;157927.91;;;10.68;80.61
7940;BME280;4015;48.888;9.226;2024-03-23T04:27:44;157899.84;;;10.57;81.26
7940;BME280;4015;48.888;9.226;2024-03-23T04:30:10;157893.44;;;10.54;82.67
7940;BME280;4015;48.888;9.226;2024-03-23T04:32:39;157894.69;;;10.55;87.14
7940;BME280;4015;48.888;9.226;2024-03-23T04:35:05;157907.47;;;10.60;89.39
7940;BME280;4015;48.888;9.226;2024-03-23T04:37:34;157907.47;;;10.60;91.70
7940;BME280;4015;48.888;9.226;2024-03-23T04:40:02;157911.31;;;10.62;93.28
7940;BME280;4015;48.888;9.226;2024-03-23T04:42:28;157898.56;;;10.57;94.59
7940;BME280;4015;48.888;9.226;2024-03-23T04:44:54;157903.66;;;10.59;95.27
7940;BME280;4015;48.888;9.226;2024-03-23T04:47:19;157899.84;;;10.57;96.19
7940;BME280;4015;48.888;9.226;2024-03-23T04:49:44;157880.63;;;10.49;97.57
7940;BME280;4015;48.888;9.226;2024-03-23T04:52:10;157864.03;;;10.43;98.52
7940;BME280;4015;48.888;9.226;2024-03-23T04:54:35;157870.47;;;10.45;98.85
7940;BME280;4015;48.888;9.226;2024-03-23T04:57:00;157881.97;;;10.50;99.02
7940;BME280;4015;48.888;9.226;2024-03-23T04:59:26;157892.16;;;10.54;98.82
7940;BME280;4015;48.888;9.226;2024-03-23T05:01:51;157898.56;;;10.57;97.56
7940;BME280;4015;48.888;9.226;2024-03-23T05:04:17;157899.84;;;10.57;98.11
7940;BME280;4015;48.888;9.226;2024-03-23T05:06:42;157888.34;;;10.52;97.06
7940;BME280;4015;48.888;9.226;2024-03-23T05:09:08;157911.31;;;10.62;96.99
7940;BME280;4015;48.888;9.226;2024-03-23T05:11:39;157899.84;;;10.57;95.59
7940;BME280;4015;48.888;9.226;2024-03-23T05:14:05;157883.25;;;10.50;96.48
7940;BME280;4015;48.888;9.226;2024-03-23T05:16:30;157888.34;;;10.52;96.05
7940;BME280;4015;48.888;9.226;2024-03-23T05:18:55;157901.13;;;10.58;96.44
7940;BME280;4015;48.888;9.226;2024-03-23T05:21:21;157890.88;;;10.53;96.53
7940;BME280;4015;48.888;9.226;2024-03-23T05:23:46;157875.53;;;10.47;96.02
7940;BME280;4015;48.888;9.226;2024-03-23T05:26:12;157908.75;;;10.61;95.25
7940;BME280;4015;48.888;9.226;2024-03-23T05:28:37;157898.56;;;10.57;94.98
7940;BME280;4015;48.888;9.226;2024-03-23T05:31:03;157880.63;;;10.49;94.93
7940;BME280;4015;48.888;9.226;2024-03-23T05:33:28;157856.41;;;10.40;92.14
7940;BME280;4015;48.888;9.226;2024-03-23T05:35:58;157850.03;;;10.37;91.72
7940;BME280;4015;48.888;9.226;2024-03-23T05:38:24;157851.31;;;10.38;91.47
7940;BME280;4015;48.888;9.226;2024-03-23T05:40:57;157848.72;;;10.37;91.29
7940;BME280;4015;48.888;9.226;2024-03-23T05:43:22;157827.03;;;10.28;91.58
7940;BME280;4015;48.888;9.226;2024-03-23T05:45:58;157791.22;;;10.14;92.64
7940;BME280;4015;48.888;9.226;2024-03-23T05:48:25;157784.81;;;10.11;93.89
7940;BME280;4015;48.888;9.226;2024-03-23T05:50:51;157779.72;;;10.09;93.37
7940;BME280;4015;48.888;9.226;2024-03-23T05:53:17;157755.47;;;9.99;92.51
7940;BME280;4015;48.888;9.226;2024-03-23T05:55:42;157741.44;;;9.94;93.54
7940;BME280;4015;48.888;9.226;2024-03-23T05:58:08;157742.69;;;9.94;91.70
7940;BME280;4015;48.888;9.226;2024-03-23T06:00:34;157743.97;;;9.95;91.35
7940;BME280;4015;48.888;9.226;2024-03-23T06:02:59;157732.47;;;9.90;90.90
7940;BME280;4015;48.888;9.226;2024-03-23T06:05:25;157729.94;;;9.89;91.27
7940;BME280;4015;48.888;9.226;2024-03-23T06:07:50;157731.19;;;9.90;91.04
7940;BME280;4015;48.888;9.226;2024-03-23T06:10:15;157712.06;;;9.82;90.64
7940;BME280;4015;48.888;9.226;2024-03-23T06:12:41;157732.47;;;9.90;90.89
7940;BME280;4015;48.888;9.226;2024-03-23T06:15:07;157709.50;;;9.81;91.04
7940;BME280;4015;48.888;9.226;2024-03-23T06:17:36;157691.59;;;9.74;91.93
7940;BME280;4015;48.888;9.226;2024-03-23T06:20:01;157691.59;;;9.74;91.59
7940;BME280;4015;48.888;9.226;2024-03-23T06:22:26;157682.69;;;9.70;91.10
7940;BME280;4015;48.888;9.226;2024-03-23T06:24:52;157658.41;;;9.61;91.41
7940;BME280;4015;48.888;9.226;2024-03-23T06:27:17;157648.22;;;9.57;89.88
7940;BME280;4015;48.888;9.226;2024-03-23T06:29:42;157659.69;;;9.61;90.88
7940;BME280;4015;48.888;9.226;2024-03-23T06:32:07;157654.59;;;9.59;89.89
7940;BME280;4015;48.888;9.226;2024-03-23T06:34:33;157662.28;;;9.62;89.93
7940;BME280;4015;48.888;9.226;2024-03-23T06:36:58;157662.28;;;9.62;89.73
7940;BME280;4015;48.888;9.226;2024-03-23T06:39:23;157652.03;;;9.58;89.98
7940;BME280;4015;48.888;9.226;2024-03-23T06:41:53;157646.97;;;9.56;88.65
7940;BME280;4015;48.888;9.226;2024-03-23T06:44:19;157641.81;;;9.54;88.55
7940;BME280;4015;48.888;9.226;2024-03-23T06:46:45;157626.50;;;9.48;88.71
7940;BME280;4015;48.888;9.226;2024-03-23T06:49:10;157635.44;;;9.52;89.08
7940;BME280;4015;48.888;9.226;2024-03-23T06:51:35;157622.69;;;9.46;88.20
7940;BME280;4015;48.888;9.226;2024-03-23T06:54:02;157640.53;;;9.54;87.95
7940;BME280;4015;48.888;9.226;2024-03-23T06:56:28;157654.59;;;9.59;87.03
7940;BME280;4015;48.888;9.226;2024-03-23T06:58:54;157664.81;;;9.63;87.11
7940;BME280;4015;48.888;9.226;2024-03-23T07:01:19;157606.09;;;9.40;85.67
7940;BME280;4015;48.888;9.226;2024-03-23T07:03:44;157616.31;;;9.44;86.22
7940;BME280;4015;48.888;9.226;2024-03-23T07:06:10;157622.69;;;9.46;85.30
7940;BME280;4015;48.888;9.226;2024-03-23T07:08:35;157659.69;;;9.61;85.44
7940;BME280;4015;48.888;9.226;2024-03-23T07:11:01;157722.25;;;9.86;84.47
7940;BME280;4015;48.888;9.226;2024-03-23T07:13:27;157709.50;;;9.81;82.97
7940;BME280;4015;48.888;9.226;2024-03-23T07:15:53;157729.94;;;9.89;84.29
7940;BME280;4015;48.888;9.226;2024-03-23T07:18:21;157695.47;;;9.76;82.74
7940;BME280;4015;48.888;9.226;2024-03-23T07:20:56;157743.97;;;9.95;83.87
7940;BME280;4015;48.888;9.226;2024-03-23T07:23:23;157800.13;;;10.17;82.88
7940;BME280;4015;48.888;9.226;2024-03-23T07:26:02;158004.56;;;10.99;79.57
7940;BME280;4015;48.888;9.226;2024-03-23T07:28:28;158091.47;;;11.33;76.97
7940;BME280;4015;48.888;9.226;2024-03-23T07:33:31;158063.34;;;11.22;76.77
7940;BME280;4015;48.888;9.226;2024-03-23T07:35:57;157904.94;;;10.59;77.83
7940;BME280;4015;48.888;9.226;2024-03-23T07:38:24;157839.78;;;10.33;79.15
7940;BME280;4015;48.888;9.226;2024-03-23T07:40:49;157837.25;;;10.32;80.25
7940;BME280;4015;48.888;9.226;2024-03-23T07:43:24;157774.63;;;10.07;80.60
7940;BME280;4015;48.888;9.226;2024-03-23T07:45:52;157763.13;;;10.03;82.14
7940;BME280;4015;48.888;9.226;2024-03-23T07:48:21;157705.66;;;9.80;81.76
7940;BME280;4015;48.888;9.226;2024-03-23T07:51:01;157677.59;;;9.68;83.56
7940;BME280;4015;48.888;9.226;2024-03-23T07:53:27;157645.69;;;9.56;83.42
7940;BME280;4015;48.888;9.226;2024-03-23T07:55:57;157623.94;;;9.47;83.57
7940;BME280;4015;48.888;9.226;2024-03-23T07:58:24;157620.13;;;9.45;84.37
7940;BME280;4015;48.888;9.226;2024-03-23T08:00:49;157598.47;;;9.37;85.82
7940;BME280;4015;48.888;9.226;2024-03-23T08:03:15;157525.69;;;9.08;88.26
7940;BME280;4015;48.888;9.226;2024-03-23T08:05:40;157479.75;;;8.89;87.22
7940;BME280;4015;48.888;9.226;2024-03-23T08:08:06;157460.63;;;8.82;86.79
7940;BME280;4015;48.888;9.226;2024-03-23T08:10:31;157511.66;;;9.02;86.87
7940;BME280;4015;48.888;9.226;2024-03-23T08:12:56;157595.84;;;9.36;84.90
7940;BME280;4015;48.888;9.226;2024-03-23T08:15:21;157798.88;;;10.17;80.97
7940;BME280;4015;48.888;9.226;2024-03-23T08:17:47;157795.03;;;10.15;82.23
7940;BME280;4015;48.888;9.226;2024-03-23T08:20:12;157718.41;;;9.85;83.63
7940;BME280;4015;48.888;9.226;2024-03-23T08:22:37;157616.31;;;9.44;83.82
7940;BME280;4015;48.888;9.226;2024-03-23T08:25:03;157475.94;;;8.88;83.93
7940;BME280;4015;48.888;9.226;2024-03-23T08:27:28;157486.09;;;8.92;85.05
7940;BME280;4015;48.888;9.226;2024-03-23T08:29:54;157491.25;;;8.94;85.31
7940;BME280;4015;48.888;9.226;2024-03-23T08:32:19;157736.28;;;9.92;81.80
7940;BME280;4015;48.888;9.226;2024-03-23T08:34:44;157673.72;;;9.67;80.38
7940;BME280;4015;48.888;9.226;2024-03-23T08:37:10;157726.09;;;9.88;80.64
7940;BME280;4015;48.888;9.226;2024-03-23T08:39:35;157982.84;;;10.90;77.17
7940;BME280;4015;48.888;9.226;2024-03-23T08:42:01;157973.91;;;10.87;75.93
7940;BME280;4015;48.888;9.226;2024-03-23T08:44:26;157950.94;;;10.77;77.39
7940;BME280;4015;48.888;9.226;2024-03-23T08:46:51;157788.69;;;10.13;76.58
7940;BME280;4015;48.888;9.226;2024-03-23T08:49:17;157806.53;;;10.20;77.84
7940;BME280;4015;48.888;9.226;2024-03-23T08:51:43;157943.25;;;10.74;76.81
7940;BME280;4015;48.888;9.226;2024-03-23T08:54:08;158068.44;;;11.24;72.61
7940;BME280;4015;48.888;9.226;2024-03-23T08:56:34;158053.13;;;11.18;74.16
7940;BME280;4015;48.888;9.226;2024-03-23T08:58:59;158046.75;;;11.16;73.09
7940;BME280;4015;48.888;9.226;2024-03-23T09:01:24;157903.66;;;10.59;75.31
7940;BME280;4015;48.888;9.226;2024-03-23T09:03:50;157908.75;;;10.61;76.00
7940;BME280;4015;48.888;9.226;2024-03-23T09:06:15;157837.25;;;10.32;74.23
7940;BME280;4015;48.888;9.226;2024-03-23T09:08:41;157779.72;;;10.09;75.98
7940;BME280;4015;48.888;9.226;2024-03-23T09:11:08;157991.81;;;10.94;74.66
7940;BME280;4015;48.888;9.226;2024-03-23T09:13:34;158207.78;;;11.80;71.90
7940;BME280;4015;48.888;9.226;2024-03-23T09:16:00;158039.09;;;11.13;72.42
7940;BME280;4015;48.888;9.226;2024-03-23T09:18:25;157925.34;;;10.67;73.69
7940;BME280;4015;48.888;9.226;2024-03-23T09:20:51;157804.00;;;10.19;73.75
7940;BME280;4015;48.888;9.226;2024-03-23T09:23:18;157880.63;;;10.49;73.00
7940;BME280;4015;48.888;9.226;2024-03-23T09:25:43;157888.34;;;10.52;69.71
7940;BME280;4015;48.888;9.226;2024-03-23T09:28:09;157851.31;;;10.38;71.71
7940;BME280;4015;48.888;9.226;2024-03-23T09:30:35;157779.72;;;10.09;70.75
7940;BME280;4015;48.888;9.226;2024-03-23T09:33:00;157729.94;;;9.89;70.34
7940;BME280;4015;48.888;9.226;2024-03-23T09:35:26;157746.53;;;9.96;70.88
7940;BME280;4015;48.888;9.226;2024-03-23T09:37:51;157745.25;;;9.95;69.86
7940;BME280;4015;48.888;9.226;2024-03-23T09:40:17;157663.53;;;9.63;71.75
7940;BME280;4015;48.888;9.226;2024-03-23T09:42:42;157667.38;;;9.64;72.50
7940;BME280;4015;48.888;9.226;2024-03-23T09:45:20;158009.72;;;11.01;69.73
7940;BME280;4015;48.888;9.226;2024-03-23T09:47:46;158224.44;;;11.86;68.15
7940;BME280;4015;48.888;9.226;2024-03-23T09:50:13;158686.31;;;13.70;62.69
7940;BME280;4015;48.888;9.226;2024-03-23T09:52:39;158783.56;;;14.09;60.34
7940;BME280;4015;48.888;9.226;2024-03-23T09:55:05;159056.38;;;15.18;57.73
7940;BME280;4015;48.888;9.226;2024-03-23T09:57:31;159052.53;;;15.16;56.25
7940;BME280;4015;48.888;9.226;2024-03-23T09:59:56;159196.09;;;15.73;54.54
7940;BME280;4015;48.888;9.226;2024-03-23T10:02:23;159220.41;;;15.83;52.97
7940;BME280;4015;48.888;9.226;2024-03-23T10:04:49;159061.50;;;15.20;54.73
7940;BME280;4015;48.888;9.226;2024-03-23T10:07:18;158720.84;;;13.84;54.60
7940;BME280;4015;48.888;9.226;2024-03-23T10:09:43;158551.88;;;13.17;57.95
7940;BME280;4015;48.888;9.226;2024-03-23T10:12:13;158283.28;;;12.10;58.97
7940;BME280;4015;48.888;9.226;2024-03-23T10:14:39;158087.66;;;11.32;60.57
7940;BME280;4015;48.888;9.226;2024-03-23T10:19:48;157907.47;;;10.60;61.54
7940;BME280;4015;48.888;9.226;2024-03-23T10:22:17;157884.50;;;10.51;61.80
7940;BME280;4015;48.888;9.226;2024-03-23T10:24:43;157887.06;;;10.52;63.98
7940;BME280;4015;48.888;9.226;2024-03-23T10:27:08;157825.75;;;10.27;63.92
7940;BME280;4015;48.888;9.226;2024-03-23T10:29:40;157796.31;;;10.16;64.50
7940;BME280;4015;48.888;9.226;2024-03-23T10:32:13;157742.69;;;9.94;64.68
7940;BME280;4015;48.888;9.226;2024-03-23T10:34:39;157714.59;;;9.83;65.07
7940;BME280;4015;48.888;9.226;2024-03-23T10:37:06;157714.59;;;9.83;66.00
7940;BME280;4015;48.888;9.226;2024-03-23T10:39:33;157639.28;;;9.53;67.77
7940;BME280;4015;48.888;9.226;2024-03-23T10:42:02;157641.81;;;9.54;69.13
7940;BME280;4015;48.888;9.226;2024-03-23T10:44:28;157648.22;;;9.57;70.25
7940;BME280;4015;48.888;9.226;2024-03-23T10:46:56;157555.06;;;9.19;71.02
7940;BME280;4015;48.888;9.226;2024-03-23T10:49:25;157530.78;;;9.10;71.26
7940;BME280;4015;48.888;9.226;2024-03-23T10:51:51;157450.41;;;8.78;75.91
7940;BME280;4015;48.888;9.226;2024-03-23T10:54:16;157264.09;;;8.03;76.32
7940;BME280;4015;48.888;9.226;2024-03-23T10:56:43;157094.56;;;7.36;79.59
7940;BME280;4015;48.888;9.226;2024-03-23T10:59:09;156918.69;;;6.65;83.53
7940;BME280;4015;48.888;9.226;2024-03-23T11:01:35;156840.97;;;6.34;86.77
7940;BME280;4015;48.888;9.226;2024-03-23T11:07:01;156749.31;;;5.98;93.50
7940;BME280;4015;48.888;9.226;2024-03-23T11:09:42;156756.91;;;6.01;94.19
7940;BME280;4015;48.888;9.226;2024-03-23T11:15:05;156788.75;;;6.13;94.33
7940;BME280;4015;48.888;9.226;2024-03-23T11:17:31;156874.13;;;6.47;93.01
7940;BME280;4015;48.888;9.226;2024-03-23T11:19:57;156921.25;;;6.66;90.03
7940;BME280;4015;48.888;9.226;2024-03-23T11:27:46;157615.03;;;9.43;81.65
7940;BME280;4015;48.888;9.226;2024-03-23T11:30:13;157811.63;;;10.22;79.66
7940;BME280;4015;48.888;9.226;2024-03-23T11:32:39;158083.78;;;11.30;75.13
7940;BME280;4015;48.888;9.226;2024-03-23T11:35:05;158340.81;;;12.33;68.24
7940;BME280;4015;48.888;9.226;2024-03-23T11:37:31;158517.31;;;13.03;69.95
7940;BME280;4015;48.888;9.226;2024-03-23T11:39:56;158550.59;;;13.16;69.21
7940;BME280;4015;48.888;9.226;2024-03-23T11:42:21;158197.59;;;11.76;69.94
7940;BME280;4015;48.888;9.226;2024-03-23T11:44:47;158053.13;;;11.18;72.73
7940;BME280;4015;48.888;9.226;2024-03-23T11:47:12;157950.94;;;10.77;75.24
7940;BME280;4015;48.888;9.226;2024-03-23T11:49:38;157911.31;;;10.62;75.05
7940;BME280;4015;48.888;9.226;2024-03-23T11:52:06;157848.72;;;10.37;75.26
7940;BME280;4015;48.888;9.226;2024-03-23T11:54:33;157795.03;;;10.15;76.05
7940;BME280;4015;48.888;9.226;2024-03-23T11:57:03;157724.84;;;9.87;76.28
7940;BME280;4015;48.888;9.226;2024-03-23T11:59:39;157634.19;;;9.51;76.47
7940;BME280;4015;48.888;9.226;2024-03-23T12:02:10;157768.22;;;10.05;72.67
7940;BME280;4015;48.888;9.226;2024-03-23T12:04:36;157756.75;;;10.00;75.44
7940;BME280;4015;48.888;9.226;2024-03-23T12:07:13;157639.28;;;9.53;75.64
7940;BME280;4015;48.888;9.226;2024-03-23T12:09:39;157714.59;;;9.83;77.14
7940;BME280;4015;48.888;9.226;2024-03-23T12:12:17;157706.91;;;9.80;76.79
7940;BME280;4015;48.888;9.226;2024-03-23T12:14:43;157609.91;;;9.41;73.80
7940;BME280;4015;48.888;9.226;2024-03-23T12:17:13;157580.53;;;9.30;70.65
7940;BME280;4015;48.888;9.226;2024-03-23T12:19:39;157680.13;;;9.69;71.67
7940;BME280;4015;48.888;9.226;2024-03-23T12:22:05;157717.16;;;9.84;66.14
7940;BME280;4015;48.888;9.226;2024-03-23T12:24:32;157848.72;;;10.37;65.32
7940;BME280;4015;48.888;9.226;2024-03-23T12:27:00;158660.69;;;13.60;61.22
7940;BME280;4015;48.888;9.226;2024-03-23T12:29:28;159015.38;;;15.01;54.09
7940;BME280;4015;48.888;9.226;2024-03-23T12:31:53;158659.41;;;13.60;55.77
7940;BME280;4015;48.888;9.226;2024-03-23T12:34:19;158391.97;;;12.53;59.54
7940;BME280;4015;48.888;9.226;2024-03-23T12:36:44;158299.88;;;12.17;60.12
7940;BME280;4015;48.888;9.226;2024-03-23T12:39:09;158159.22;;;11.60;63.17
7940;BME280;4015;48.888;9.226;2024-03-23T12:41:34;158068.44;;;11.24;61.92
7940;BME280;4015;48.888;9.226;2024-03-23T12:44:00;158005.84;;;10.99;63.07
7940;BME280;4015;48.888;9.226;2024-03-23T12:46:25;158752.84;;;13.97;58.24
7940;BME280;4015;48.888;9.226;2024-03-23T12:48:50;158962.88;;;14.80;54.35
7940;BME280;4015;48.888;9.226;2024-03-23T12:51:16;158710.59;;;13.80;54.10
7940;BME280;4015;48.888;9.226;2024-03-23T12:53:41;158491.72;;;12.93;58.27
7940;BME280;4015;48.888;9.226;2024-03-23T12:56:06;158328.03;;;12.28;57.67
7940;BME280;4015;48.888;9.226;2024-03-23T12:58:32;158273.03;;;12.06;58.56
7940;BME280;4015;48.888;9.226;2024-03-23T13:00:58;158997.44;;;14.94;53.34
7940;BME280;4015;48.888;9.226;2024-03-23T13:03:23;159588.44;;;17.29;49.72
7940;BME280;4015;48.888;9.226;2024-03-23T13:05:52;159592.28;;;17.31;47.42
7940;BME280;4015;48.888;9.226;2024-03-23T13:08:17;159727.00;;;17.84;45.56
7940;BME280;4015;48.888;9.226;2024-03-23T13:10:43;159964.47;;;18.78;47.29
7940;BME280;4015;48.888;9.226;2024-03-23T13:13:10;159671.81;;;17.62;45.05
7940;BME280;4015;48.888;9.226;2024-03-23T13:15:35;159396.00;;;16.53;47.55
7940;BME280;4015;48.888;9.226;2024-03-23T13:18:00;158897.56;;;14.54;50.40
7940;BME280;4015;48.888;9.226;2024-03-23T13:20:26;159123.00;;;15.44;50.96
7940;BME280;4015;48.888;9.226;2024-03-23T13:22:51;159281.94;;;16.07;49.28
7940;BME280;4015;48.888;9.226;2024-03-23T13:25:17;159599.94;;;17.34;44.08
7940;BME280;4015;48.888;9.226;2024-03-23T13:27:44;159634.63;;;17.47;45.35
7940;BME280;4015;48.888;9.226;2024-03-23T13:30:09;159798.88;;;18.13;42.18
7940;BME280;4015;48.888;9.226;2024-03-23T13:32:35;159827.13;;;18.24;44.13
7940;BME280;4015;48.888;9.226;2024-03-23T13:35:00;159932.31;;;18.66;44.35
7940;BME280;4015;48.888;9.226;2024-03-23T13:37:26;160040.22;;;19.08;41.63
7940;BME280;4015;48.888;9.226;2024-03-23T13:39:51;160187.91;;;19.67;42.04
7940;BME280;4015;48.888;9.226;2024-03-23T13:42:17;160208.50;;;19.75;41.33
7940;BME280;4015;48.888;9.226;2024-03-23T13:44:42;160452.63;;;20.72;39.96
7940;BME280;4015;48.888;9.226;2024-03-23T13:47:08;159838.63;;;18.28;41.76
7940;BME280;4015;48.888;9.226;2024-03-23T13:49:33;159035.91;;;15.09;46.43
7940;BME280;4015;48.888;9.226;2024-03-23T13:51:59;158676.03;;;13.66;50.37
7940;BME280;4015;48.888;9.226;2024-03-23T13:54:25;158383.00;;;12.50;54.53
7940;BME280;4015;48.888;9.226;2024-03-23T13:56:51;158083.78;;;11.30;58.15
7940;BME280;4015;48.888;9.226;2024-03-23T13:59:17;157509.09;;;9.01;70.89
7940;BME280;4015;48.888;9.226;2024-03-23T14:01:43;157218.19;;;7.85;78.70
7940;BME280;4015;48.888;9.226;2024-03-23T14:04:10;157056.31;;;7.20;80.65
7940;BME280;4015;48.888;9.226;2024-03-23T14:06:36;156988.78;;;6.93;82.76
7940;BME280;4015;48.888;9.226;2024-03-23T14:09:01;156889.38;;;6.54;83.48
7940;BME280;4015;48.888;9.226;2024-03-23T14:11:28;156830.81;;;6.30;85.14
7940;BME280;4015;48.888;9.226;2024-03-23T14:13:54;156745.44;;;5.96;89.00
7940;BME280;4015;48.888;9.226;2024-03-23T14:16:19;156672.84;;;5.67;89.06
7940;BME280;4015;48.888;9.226;2024-03-23T14:18:47;156662.66;;;5.63;89.61